Time;durP1;ratioP1;P1;durP2;ratioP2;P2;SDS_P1;SDS_P2;PMS_P1;PMS_P2;Temp;Humidity;BMP_temperature;BMP_pressure;BME280_temperature;BME280_humidity;BME280_pressure;Samples;Min_cycle;Max_cycle;Signal;HPM_P1;HPM_P2
2021/05/06 00:32:31;;;;;;;4.28;0.90;;;;;;;;;;10159093;28;20046;-57
2021/05/06 00:37:28;;;;;;;7.03;1.27;;;;;;;;;;10167914;28;20133;-60
2021/05/06 00:42:56;;;;;;;5.60;1.17;;;;;;;;;;10162039;28;20122;-60
2021/05/06 00:58:47;;;;;;;3.15;0.73;;;;;;;;;;10161937;28;20041;-63
2021/05/06 01:08:46;;;;;;;3.20;1.27;;;;;;;;;;10180787;28;20031;-63
2021/05/06 01:13:46;;;;;;;2.83;1.25;;;;;;;;;;10169774;28;20031;-64
2021/05/06 01:18:44;;;;;;;4.30;1.35;;;;;;;;;;10153520;28;20043;-62
2021/05/06 01:23:44;;;;;;;11.37;1.60;;;;;;;;;;10151353;28;20039;-60
2021/05/06 01:28:44;;;;;;;3.45;1.38;;;;;;;;;;10179038;28;20126;-61
2021/05/06 01:59:07;;;;;;;7.30;1.50;;;;;;;;;;10158932;28;20564;-63
2021/05/06 02:04:04;;;;;;;5.05;1.42;;;;;;;;;;10146095;28;20035;-62
2021/05/06 02:09:03;;;;;;;0.87;0.83;;;;;;;;;;10143637;28;20082;-62
2021/05/06 02:14:00;;;;;;;5.65;1.23;;;;;;;;;;10155304;28;20035;-64
2021/05/06 02:19:06;;;;;;;3.50;1.40;;;;;;;;;;10157692;28;20031;-63
2021/05/06 02:24:04;;;;;;;4.65;1.05;;;;;;;;;;10159461;28;20033;-61
2021/05/06 02:29:03;;;;;;;5.28;1.30;;;;;;;;;;10149649;28;20039;-61
2021/05/06 02:34:00;;;;;;;3.47;1.27;;;;;;;;;;10171862;28;21328;-61
2021/05/06 02:38:58;;;;;;;3.73;1.23;;;;;;;;;;10158646;28;20066;-60
2021/05/06 02:43:55;;;;;;;7.97;1.10;;;;;;;;;;10181106;28;20489;-65
2021/05/06 02:48:53;;;;;;;1.13;0.70;;;;;;;;;;10151261;28;20284;-57
2021/05/06 02:53:53;;;;;;;9.27;0.77;;;;;;;;;;10155056;28;20047;-60
2021/05/06 02:59:18;;;;;;;3.15;1.15;;;;;;;;;;10166388;28;20081;-61
2021/05/06 03:04:16;;;;;;;9.02;1.60;;;;;;;;;;10168056;28;20061;-63
2021/05/06 03:25:00;;;;;;;4.25;1.05;;;;;;;;;;10185610;28;20031;-64
2021/05/06 03:30:10;;;;;;;3.83;0.80;;;;;;;;;;10185284;28;20540;-63
2021/05/06 04:27:03;;;;;;;4.85;2.28;;;;;;;;;;10125585;28;20741;-68
2021/05/06 04:37:17;;;;;;;6.32;1.80;;;;;;;;;;10118845;28;20112;-67
2021/05/06 05:08:31;;;;;;;8.38;2.20;;;;;;;;;;10130887;28;20048;-62
2021/05/06 05:18:53;;;;;;;5.30;2.15;;;;;;;;;;10211068;28;20042;-62
2021/05/06 05:24:00;;;;;;;6.25;3.30;;;;;;;;;;10193873;28;20490;-64
2021/05/06 05:28:58;;;;;;;6.93;2.42;;;;;;;;;;10180229;28;20177;-64
2021/05/06 05:34:25;;;;;;;7.60;1.57;;;;;;;;;;10171763;28;20311;-64
2021/05/06 05:39:21;;;;;;;3.85;1.40;;;;;;;;;;10182070;28;20042;-62
2021/05/06 05:54:47;;;;;;;9.68;2.42;;;;;;;;;;10190522;28;20054;-62
2021/05/06 05:59:44;;;;;;;4.55;1.13;;;;;;;;;;10167622;28;20573;-62
2021/05/06 06:04:42;;;;;;;5.33;1.10;;;;;;;;;;10185799;23;20131;-67
2021/05/06 06:09:39;;;;;;;4.50;0.83;;;;;;;;;;10162342;23;20046;-67
2021/05/06 06:14:50;;;;;;;2.77;1.43;;;;;;;;;;10192784;28;20034;-67
2021/05/06 06:19:50;;;;;;;6.43;0.93;;;;;;;;;;10187901;28;20046;-67
2021/05/06 06:24:47;;;;;;;5.60;1.80;;;;;;;;;;10180547;28;20035;-68
2021/05/06 06:29:45;;;;;;;7.60;1.43;;;;;;;;;;10194193;28;20042;-67
2021/05/06 06:34:42;;;;;;;4.13;1.37;;;;;;;;;;10197309;28;20512;-67
2021/05/06 06:39:40;;;;;;;4.27;0.80;;;;;;;;;;10193218;28;20038;-67
2021/05/06 06:44:38;;;;;;;4.97;1.05;;;;;;;;;;10194256;28;20037;-68
2021/05/06 06:49:37;;;;;;;3.33;0.67;;;;;;;;;;10182901;28;20045;-68
2021/05/06 06:54:35;;;;;;;3.33;0.88;;;;;;;;;;10189018;28;20073;-67
2021/05/06 06:59:32;;;;;;;1.63;1.07;;;;;;;;;;10181903;28;20039;-67
2021/05/06 07:04:31;;;;;;;3.47;1.27;;;;;;;;;;10191581;28;20366;-66
2021/05/06 07:09:28;;;;;;;;;;;;;;;;;;10174396;28;20069;-66
2021/05/06 07:14:28;;;;;;;3.20;1.35;;;;;;;;;;10190267;28;20045;-66
2021/05/06 07:19:25;;;;;;;2.40;1.20;;;;;;;;;;10165702;28;20042;-67
2021/05/06 07:24:22;;;;;;;4.93;1.27;;;;;;;;;;10180296;28;20038;-66
2021/05/06 07:29:21;;;;;;;8.43;1.63;;;;;;;;;;10179321;28;20035;-67
2021/05/06 07:34:19;;;;;;;2.28;1.08;;;;;;;;;;10155595;28;20039;-67
2021/05/06 07:39:16;;;;;;;6.63;1.87;;;;;;;;;;10186555;28;20042;-67
2021/05/06 07:44:13;;;;;;;2.77;1.20;;;;;;;;;;10182313;28;20505;-67
2021/05/06 07:49:11;;;;;;;9.67;1.70;;;;;;;;;;10181538;28;20415;-67
2021/05/06 07:54:10;;;;;;;5.03;1.27;;;;;;;;;;10189668;28;20652;-67
2021/05/06 07:59:07;;;;;;;1.45;0.60;;;;;;;;;;10179792;28;20035;-67
2021/05/06 08:04:04;;;;;;;8.27;1.13;;;;;;;;;;10162559;28;20035;-67
2021/05/06 08:09:03;;;;;;;1.17;0.63;;;;;;;;;;10183545;28;20185;-67
2021/05/06 08:14:01;;;;;;;2.45;0.75;;;;;;;;;;10176298;23;20054;-69
2021/05/06 08:18:58;;;;;;;3.87;0.77;;;;;;;;;;10207217;23;20701;-66
2021/05/06 08:23:56;;;;;;;3.00;0.73;;;;;;;;;;10204749;28;20464;-67
2021/05/06 08:28:56;;;;;;;0.70;0.45;;;;;;;;;;10207166;28;20149;-66
2021/05/06 08:33:53;;;;;;;1.75;0.47;;;;;;;;;;10175255;28;20754;-66
2021/05/06 08:38:51;;;;;;;2.50;1.23;;;;;;;;;;10175296;28;20055;-67
2021/05/06 08:43:56;;;;;;;8.85;2.15;;;;;;;;;;10180712;28;20758;-67
2021/05/06 08:48:54;;;;;;;4.38;1.05;;;;;;;;;;10186602;23;20086;-65
2021/05/06 08:53:51;;;;;;;10.23;1.30;;;;;;;;;;10219597;23;20058;-65
2021/05/06 08:58:49;;;;;;;2.33;1.60;;;;;;;;;;10205386;23;20043;-63
2021/05/06 09:03:46;;;;;;;0.83;0.73;;;;;;;;;;10211228;28;20100;-63
2021/05/06 09:09:00;;;;;;;1.70;0.50;;;;;;;;;;10206805;28;20092;-62
2021/05/06 09:14:00;;;;;;;5.13;0.95;;;;;;;;;;10208882;28;20097;-64
2021/05/06 09:19:02;;;;;;;1.90;0.60;;;;;;;;;;10194480;28;20045;-63
2021/05/06 09:24:11;;;;;;;4.78;1.40;;;;;;;;;;10189046;28;20054;-63
2021/05/06 09:29:10;;;;;;;3.10;1.00;;;;;;;;;;10204939;28;20035;-62
2021/05/06 09:34:07;;;;;;;;;;;;;;;;;;10203788;28;20053;-62
2021/05/06 09:39:08;;;;;;;5.20;0.90;;;;;;;;;;10215004;23;19925;-62
2021/05/06 09:44:10;;;;;;;4.70;0.70;;;;;;;;;;10102096;28;20349;-61
2021/05/06 09:49:08;;;;;;;2.17;0.73;;;;;;;;;;10114283;28;20097;-61
2021/05/06 09:54:08;;;;;;;3.45;0.45;;;;;;;;;;10145160;28;20483;-62
2021/05/06 09:59:06;;;;;;;1.17;0.35;;;;;;;;;;9997471;23;20511;-61
2021/05/06 10:04:13;;;;;;;2.78;0.57;;;;;;;;;;10078968;28;20530;-63
2021/05/06 10:09:10;;;;;;;1.10;0.40;;;;;;;;;;10063465;28;20114;-63
2021/05/06 10:14:08;;;;;;;0.20;0.20;;;;;;;;;;10077787;28;20399;-64
2021/05/06 10:19:06;;;;;;;6.70;1.15;;;;;;;;;;10094530;28;20036;-64
2021/05/06 10:24:04;;;;;;;0.70;0.47;;;;;;;;;;10147800;23;20058;-65
2021/05/06 10:29:01;;;;;;;5.43;0.97;;;;;;;;;;10192225;28;20035;-64
2021/05/06 10:33:59;;;;;;;2.53;0.30;;;;;;;;;;10199479;28;20459;-64
2021/05/06 10:38:56;;;;;;;5.23;0.70;;;;;;;;;;10181820;28;20121;-63
2021/05/06 10:43:54;;;;;;;2.43;0.67;;;;;;;;;;10181210;28;20093;-64
2021/05/06 10:49:01;;;;;;;3.10;0.88;;;;;;;;;;10182323;28;20042;-63
2021/05/06 10:53:58;;;;;;;2.63;0.75;;;;;;;;;;10189162;28;20037;-65
2021/05/06 10:58:56;;;;;;;5.13;0.57;;;;;;;;;;10204077;28;20034;-63
2021/05/06 11:04:03;;;;;;;7.43;1.07;;;;;;;;;;10184395;28;20074;-64
2021/05/06 11:09:01;;;;;;;6.13;0.82;;;;;;;;;;10194600;28;20046;-63
2021/05/06 11:14:05;;;;;;;4.93;0.30;;;;;;;;;;10202591;28;20046;-63
2021/05/06 11:19:03;;;;;;;1.40;0.35;;;;;;;;;;10185916;28;20045;-63
2021/05/06 11:24:25;;;;;;;0.98;0.20;;;;;;;;;;10178336;28;20061;-63
2021/05/06 11:29:27;;;;;;;0.47;0.38;;;;;;;;;;10167819;28;20439;-63
2021/05/06 11:34:32;;;;;;;1.15;0.25;;;;;;;;;;10182053;28;20065;-62
2021/05/06 11:39:29;;;;;;;0.17;0.10;;;;;;;;;;10196391;28;20066;-63
2021/05/06 11:44:27;;;;;;;1.27;0.30;;;;;;;;;;10189454;28;20046;-64
2021/05/06 11:49:26;;;;;;;0.67;0.20;;;;;;;;;;10198427;28;20673;-64
2021/05/06 11:54:24;;;;;;;6.10;1.02;;;;;;;;;;10193130;28;20066;-63
2021/05/06 11:59:23;;;;;;;6.83;0.80;;;;;;;;;;10198247;28;20480;-64
2021/05/06 12:04:24;;;;;;;1.45;0.30;;;;;;;;;;10200300;28;20026;-63
2021/05/06 12:09:23;;;;;;;1.08;0.40;;;;;;;;;;10197166;28;20050;-63
2021/05/06 12:14:30;;;;;;;1.48;0.30;;;;;;;;;;10191121;28;20036;-63
2021/05/06 12:19:28;;;;;;;2.28;0.38;;;;;;;;;;10179630;28;20050;-63
2021/05/06 12:24:25;;;;;;;0.87;0.43;;;;;;;;;;10206263;23;20042;-66
2021/05/06 12:29:24;;;;;;;0.40;0.27;;;;;;;;;;10159209;28;20134;-66
2021/05/06 12:34:23;;;;;;;2.95;1.50;;;;;;;;;;10136482;28;20035;-66
2021/05/06 12:39:20;;;;;;;4.10;1.05;;;;;;;;;;10117729;28;20040;-66
2021/05/06 12:44:41;;;;;;;0.50;0.50;;;;;;;;;;10139368;28;20358;-66
2021/05/06 12:49:39;;;;;;;7.07;1.52;;;;;;;;;;10109638;28;20032;-64
2021/05/06 12:54:37;;;;;;;1.90;0.73;;;;;;;;;;10106163;28;20063;-64
2021/05/06 12:59:34;;;;;;;0.87;0.47;;;;;;;;;;10113725;28;20573;-65
2021/05/06 13:04:41;;;;;;;4.87;0.60;;;;;;;;;;10119937;28;20028;-66
2021/05/06 13:09:41;;;;;;;2.85;0.85;;;;;;;;;;10118996;28;20153;-64
2021/05/06 13:14:49;;;;;;;5.38;0.75;;;;;;;;;;10120724;28;20031;-64
2021/05/06 13:19:46;;;;;;;2.55;0.47;;;;;;;;;;10119071;28;20047;-64
2021/05/06 13:24:45;;;;;;;1.90;0.87;;;;;;;;;;10127747;28;20050;-64
2021/05/06 13:29:56;;;;;;;6.88;1.00;;;;;;;;;;10084869;28;20043;-64
2021/05/06 13:34:54;;;;;;;6.82;1.02;;;;;;;;;;10129053;28;20035;-65
2021/05/06 13:39:51;;;;;;;;;;;;;;;;;;10125855;28;20038;-64
2021/05/06 13:44:53;;;;;;;3.25;0.50;;;;;;;;;;10121020;28;19922;-65
2021/05/06 13:49:50;;;;;;;1.25;0.63;;;;;;;;;;10099098;28;20046;-65
2021/05/06 13:54:48;;;;;;;0.73;0.30;;;;;;;;;;10116744;28;20094;-65
2021/05/06 13:59:46;;;;;;;0.45;0.32;;;;;;;;;;10096815;28;20039;-65
2021/05/06 14:04:45;;;;;;;0.82;0.32;;;;;;;;;;10109439;28;20126;-64
2021/05/06 14:09:43;;;;;;;5.97;0.85;;;;;;;;;;10120029;28;20489;-64
2021/05/06 14:14:41;;;;;;;1.77;0.32;;;;;;;;;;10125490;28;20145;-65
2021/05/06 14:19:38;;;;;;;4.05;0.60;;;;;;;;;;10111717;28;20074;-64
2021/05/06 14:24:36;;;;;;;1.17;0.50;;;;;;;;;;10098331;28;20289;-64
2021/05/06 14:29:33;;;;;;;1.57;0.30;;;;;;;;;;10124023;28;20034;-64
2021/05/06 14:34:31;;;;;;;2.47;0.70;;;;;;;;;;10124244;28;20035;-64
2021/05/06 14:39:28;;;;;;;5.17;0.80;;;;;;;;;;10119660;28;20043;-65
2021/05/06 14:44:25;;;;;;;3.40;0.60;;;;;;;;;;10125698;28;20027;-63
2021/05/06 14:49:23;;;;;;;2.57;0.60;;;;;;;;;;10099782;28;20529;-64
2021/05/06 14:54:20;;;;;;;1.97;0.70;;;;;;;;;;10113242;28;20037;-64
2021/05/06 14:59:18;;;;;;;1.90;0.40;;;;;;;;;;10101818;28;20039;-64
2021/05/06 15:04:15;;;;;;;1.87;0.30;;;;;;;;;;10117907;28;20031;-63
2021/05/06 15:09:13;;;;;;;4.90;0.70;;;;;;;;;;10121562;28;20819;-64
2021/05/06 15:14:10;;;;;;;0.93;0.40;;;;;;;;;;10090329;28;20035;-64
2021/05/06 15:19:07;;;;;;;4.13;0.97;;;;;;;;;;10114213;28;20870;-63
2021/05/06 15:24:05;;;;;;;4.63;0.70;;;;;;;;;;10101682;28;20058;-64
2021/05/06 15:29:06;;;;;;;2.53;0.70;;;;;;;;;;10107225;28;20023;-63
2021/05/06 15:34:04;;;;;;;4.50;2.20;;;;;;;;;;10111346;28;20761;-63
2021/05/06 15:39:03;;;;;;;1.85;0.90;;;;;;;;;;10119811;28;20036;-64
2021/05/06 15:44:01;;;;;;;0.95;0.65;;;;;;;;;;10110907;28;20024;-64
2021/05/06 15:49:00;;;;;;;2.55;0.93;;;;;;;;;;10097789;28;20043;-62
2021/05/06 15:53:58;;;;;;;1.85;0.80;;;;;;;;;;10109891;28;20074;-64
2021/05/06 15:58:58;;;;;;;2.92;0.52;;;;;;;;;;10095665;28;20043;-62
2021/05/06 16:04:04;;;;;;;0.90;0.50;;;;;;;;;;10115119;28;20490;-63
2021/05/06 16:09:02;;;;;;;0.88;0.55;;;;;;;;;;10122879;28;20074;-64
2021/05/06 16:14:00;;;;;;;7.70;0.47;;;;;;;;;;10114453;28;20049;-64
2021/05/06 16:19:00;;;;;;;2.80;1.08;;;;;;;;;;10122110;28;20043;-63
2021/05/06 16:23:57;;;;;;;1.92;0.50;;;;;;;;;;10116027;28;20114;-62
2021/05/06 16:28:55;;;;;;;6.33;1.77;;;;;;;;;;10112184;28;20062;-63
2021/05/06 16:33:57;;;;;;;6.10;1.13;;;;;;;;;;10122472;28;20071;-64
2021/05/06 16:39:08;;;;;;;1.30;1.20;;;;;;;;;;10109673;28;20220;-64
2021/05/06 16:44:27;;;;;;;6.15;3.42;;;;;;;;;;10135825;28;20528;-63
2021/05/06 16:49:24;;;;;;;2.03;1.00;;;;;;;;;;10123125;28;20031;-63
2021/05/06 16:54:22;;;;;;;0.73;0.57;;;;;;;;;;10123516;28;20522;-64
2021/05/06 16:59:20;;;;;;;1.20;0.80;;;;;;;;;;10131623;28;20410;-62
2021/05/06 17:04:18;;;;;;;11.32;4.70;;;;;;;;;;10111654;28;20031;-63
2021/05/06 17:09:15;;;;;;;4.37;2.33;;;;;;;;;;10124434;28;20404;-62
2021/05/06 17:14:13;;;;;;;3.73;2.00;;;;;;;;;;10098865;28;20035;-64
2021/05/06 17:19:10;;;;;;;3.20;2.00;;;;;;;;;;10121208;28;20050;-64
2021/05/06 17:24:08;;;;;;;3.00;1.57;;;;;;;;;;10096158;28;20049;-63
2021/05/06 17:29:05;;;;;;;1.70;1.20;;;;;;;;;;10129263;28;20047;-62
2021/05/06 17:34:03;;;;;;;2.57;1.57;;;;;;;;;;10123238;28;20102;-62
2021/05/06 17:39:00;;;;;;;2.20;1.23;;;;;;;;;;10125878;28;20496;-63
2021/05/06 17:43:58;;;;;;;2.43;1.50;;;;;;;;;;10105682;28;20082;-62
2021/05/06 17:48:55;;;;;;;3.83;1.60;;;;;;;;;;10127445;28;20039;-63
2021/05/06 17:53:53;;;;;;;1.33;1.20;;;;;;;;;;10091699;28;20127;-63
2021/05/06 17:58:54;;;;;;;1.58;1.27;;;;;;;;;;10085217;28;20421;-63
2021/05/06 18:03:52;;;;;;;2.42;1.05;;;;;;;;;;10096695;28;20261;-63
2021/05/06 18:08:53;;;;;;;1.17;0.93;;;;;;;;;;10113373;28;20042;-62
2021/05/06 18:13:54;;;;;;;3.63;1.17;;;;;;;;;;10125717;28;20035;-62
2021/05/06 18:18:53;;;;;;;1.55;0.80;;;;;;;;;;10111245;28;20502;-63
2021/05/06 18:23:51;;;;;;;2.63;1.00;;;;;;;;;;10072781;28;20039;-63
2021/05/06 18:28:49;;;;;;;1.85;0.95;;;;;;;;;;10111603;28;20090;-62
2021/05/06 18:33:46;;;;;;;1.73;0.73;;;;;;;;;;10113923;28;20086;-62
2021/05/06 18:38:45;;;;;;;1.57;0.60;;;;;;;;;;10125512;28;20043;-62
2021/05/06 18:43:43;;;;;;;;;;;;;;;;;;10123093;28;20446;-62
2021/05/06 18:48:40;;;;;;;0.35;0.30;;;;;;;;;;10122828;28;19973;-63
2021/05/06 18:53:38;;;;;;;2.50;0.57;;;;;;;;;;10117291;28;20038;-62
2021/05/06 18:58:35;;;;;;;1.87;0.60;;;;;;;;;;10116736;28;20245;-62
2021/05/06 19:03:33;;;;;;;6.27;0.50;;;;;;;;;;10119839;28;20383;-62
2021/05/06 19:08:30;;;;;;;1.97;0.80;;;;;;;;;;10125219;28;20105;-62
2021/05/06 19:13:27;;;;;;;0.40;0.40;;;;;;;;;;10117903;28;20586;-63
2021/05/06 19:18:25;;;;;;;0.50;0.50;;;;;;;;;;10117261;28;20399;-63
2021/05/06 19:23:22;;;;;;;0.20;0.20;;;;;;;;;;10122568;28;20035;-63
2021/05/06 19:28:20;;;;;;;0.20;0.20;;;;;;;;;;10097261;28;20833;-63
2021/05/06 19:33:17;;;;;;;1.37;0.63;;;;;;;;;;10120875;28;20120;-63
2021/05/06 19:38:15;;;;;;;2.30;0.57;;;;;;;;;;10119944;28;20044;-64
2021/05/06 19:43:14;;;;;;;1.57;0.50;;;;;;;;;;10122666;28;20522;-62
2021/05/06 19:48:11;;;;;;;0.85;0.43;;;;;;;;;;10117188;28;20039;-63
2021/05/06 19:53:09;;;;;;;0.67;0.50;;;;;;;;;;10106876;28;20038;-62
2021/05/06 19:58:06;;;;;;;3.90;0.40;;;;;;;;;;10120270;28;20518;-62
2021/05/06 20:03:04;;;;;;;1.50;0.60;;;;;;;;;;10119253;28;20387;-62
2021/05/06 20:08:01;;;;;;;0.30;0.30;;;;;;;;;;10119845;28;20411;-62
2021/05/06 20:12:58;;;;;;;1.57;0.40;;;;;;;;;;10113348;28;20051;-62
2021/05/06 20:17:56;;;;;;;1.33;0.47;;;;;;;;;;10122048;28;20043;-61
2021/05/06 20:22:58;;;;;;;1.07;0.53;;;;;;;;;;10110097;28;20044;-61
2021/05/06 20:27:56;;;;;;;4.18;1.70;;;;;;;;;;10125229;28;20576;-62
2021/05/06 20:32:54;;;;;;;9.23;1.70;;;;;;;;;;10096793;28;20047;-63
2021/05/06 20:37:52;;;;;;;3.05;1.17;;;;;;;;;;10128052;28;20039;-63
2021/05/06 20:42:54;;;;;;;2.33;1.07;;;;;;;;;;10131934;28;20066;-62
2021/05/06 20:47:52;;;;;;;1.65;0.80;;;;;;;;;;10096904;28;20036;-62
2021/05/06 20:52:50;;;;;;;2.90;1.07;;;;;;;;;;10108314;28;20046;-62
2021/05/06 20:57:48;;;;;;;6.27;1.23;;;;;;;;;;10101890;28;20061;-63
2021/05/06 21:02:45;;;;;;;2.13;1.13;;;;;;;;;;10131527;28;20041;-62
2021/05/06 21:07:43;;;;;;;3.40;1.37;;;;;;;;;;10129096;28;20399;-62
2021/05/06 21:12:41;;;;;;;4.05;1.23;;;;;;;;;;10107070;28;20054;-62
2021/05/06 21:17:38;;;;;;;7.50;1.27;;;;;;;;;;10129312;28;20035;-63
2021/05/06 21:22:36;;;;;;;5.67;1.60;;;;;;;;;;10134416;28;20046;-62
2021/05/06 21:27:33;;;;;;;2.70;1.47;;;;;;;;;;10131084;28;20098;-61
2021/05/06 21:32:30;;;;;;;3.70;1.20;;;;;;;;;;10138299;28;20086;-62
2021/05/06 21:37:28;;;;;;;4.00;1.40;;;;;;;;;;10130995;28;20063;-61
2021/05/06 21:42:25;;;;;;;2.20;1.40;;;;;;;;;;10123208;28;20042;-62
2021/05/06 21:47:23;;;;;;;5.77;1.53;;;;;;;;;;10132507;28;20043;-62
2021/05/06 21:52:21;;;;;;;2.83;1.10;;;;;;;;;;10137834;28;20043;-61
2021/05/06 21:57:18;;;;;;;5.60;1.63;;;;;;;;;;10125357;28;20044;-63
2021/05/06 22:02:15;;;;;;;2.57;0.97;;;;;;;;;;10113740;28;21264;-61
2021/05/06 22:07:13;;;;;;;4.60;1.40;;;;;;;;;;10136964;28;20122;-61
2021/05/06 22:12:10;;;;;;;8.20;1.40;;;;;;;;;;10130372;28;20044;-62
2021/05/06 22:17:08;;;;;;;5.93;1.97;;;;;;;;;;10125212;28;20070;-61
2021/05/06 22:22:06;;;;;;;3.53;1.30;;;;;;;;;;10126836;28;20122;-62
2021/05/06 22:27:04;;;;;;;3.60;1.52;;;;;;;;;;10129473;28;20043;-61
2021/05/06 22:32:03;;;;;;;5.33;1.80;;;;;;;;;;10128716;28;20036;-59
2021/05/06 22:37:00;;;;;;;6.15;1.48;;;;;;;;;;10109812;28;20043;-62
2021/05/06 22:41:58;;;;;;;1.43;1.33;;;;;;;;;;10131852;28;20069;-62
2021/05/06 22:46:55;;;;;;;6.60;1.13;;;;;;;;;;10131068;28;20110;-61
2021/05/06 22:51:53;;;;;;;5.33;1.50;;;;;;;;;;10111605;28;20040;-61
2021/05/06 22:56:50;;;;;;;8.10;1.43;;;;;;;;;;10133395;28;20038;-58
2021/05/06 23:01:47;;;;;;;2.13;1.27;;;;;;;;;;10120466;28;20035;-62
2021/05/06 23:06:45;;;;;;;4.47;1.13;;;;;;;;;;10112067;28;20461;-61
2021/05/06 23:11:43;;;;;;;1.67;0.80;;;;;;;;;;10128493;28;20057;-60
2021/05/06 23:16:40;;;;;;;2.30;0.90;;;;;;;;;;10130446;28;20042;-62
2021/05/06 23:21:37;;;;;;;2.27;0.90;;;;;;;;;;10126682;28;20569;-62
2021/05/06 23:26:35;;;;;;;3.17;0.53;;;;;;;;;;10122929;28;20047;-63
2021/05/06 23:31:32;;;;;;;1.23;0.43;;;;;;;;;;10130347;28;20300;-61
2021/05/06 23:36:32;;;;;;;4.70;0.90;;;;;;;;;;10113315;28;20039;-63
2021/05/06 23:41:30;;;;;;;0.43;0.43;;;;;;;;;;10130596;28;20062;-62
2021/05/06 23:46:27;;;;;;;0.43;0.43;;;;;;;;;;10138464;28;20073;-62
2021/05/06 23:51:25;;;;;;;1.87;0.73;;;;;;;;;;10125741;28;20142;-63
2021/05/06 23:56:22;;;;;;;1.23;0.80;;;;;;;;;;10117310;28;20054;-62
